sensor_id;sensor_type;location;lat;lon;timestamp;P1;durP1;ratioP1;P2;durP2;ratioP2
50231;SDS011;36118;56.468;84.952;2023-02-28T00:02:54;5.80;;;2.43;;
50231;SDS011;36118;56.468;84.952;2023-02-28T00:08:00;7.75;;;3.10;;
50231;SDS011;36118;56.468;84.952;2023-02-28T00:13:06;5.45;;;2.72;;
50231;SDS011;36118;56.468;84.952;2023-02-28T00:18:09;7.45;;;2.25;;
50231;SDS011;36118;56.468;84.952;2023-02-28T00:23:12;6.22;;;3.17;;
50231;SDS011;36118;56.468;84.952;2023-02-28T00:28:14;5.32;;;2.45;;
50231;SDS011;36118;56.468;84.952;2023-02-28T00:33:17;7.20;;;2.45;;
50231;SDS011;36118;56.468;84.952;2023-02-28T00:38:21;5.38;;;2.00;;
50231;SDS011;36118;56.468;84.952;2023-02-28T00:43:24;5.18;;;2.17;;
50231;SDS011;36118;56.468;84.952;2023-02-28T00:48:27;7.25;;;2.42;;
50231;SDS011;36118;56.468;84.952;2023-02-28T00:53:30;4.85;;;2.40;;
50231;SDS011;36118;56.468;84.952;2023-02-28T01:03:37;5.90;;;2.30;;
50231;SDS011;36118;56.468;84.952;2023-02-28T01:08:40;7.07;;;2.70;;
50231;SDS011;36118;56.468;84.952;2023-02-28T01:13:44;6.25;;;2.63;;
50231;SDS011;36118;56.468;84.952;2023-02-28T01:18:49;6.63;;;2.65;;
50231;SDS011;36118;56.468;84.952;2023-02-28T01:23:52;6.88;;;3.03;;
50231;SDS011;36118;56.468;84.952;2023-02-28T01:28:54;9.85;;;2.70;;
50231;SDS011;36118;56.468;84.952;2023-02-28T01:33:59;5.53;;;3.03;;
50231;SDS011;36118;56.468;84.952;2023-02-28T01:39:03;6.38;;;3.22;;
50231;SDS011;36118;56.468;84.952;2023-02-28T01:44:07;8.05;;;3.53;;
50231;SDS011;36118;56.468;84.952;2023-02-28T01:49:47;6.38;;;3.58;;
50231;SDS011;36118;56.468;84.952;2023-02-28T01:54:51;8.27;;;2.80;;
50231;SDS011;36118;56.468;84.952;2023-02-28T02:05:07;7.57;;;3.47;;
50231;SDS011;36118;56.468;84.952;2023-02-28T02:10:12;7.72;;;3.00;;
50231;SDS011;36118;56.468;84.952;2023-02-28T02:15:26;7.88;;;3.13;;
50231;SDS011;36118;56.468;84.952;2023-02-28T02:32:18;4.93;;;2.88;;
50231;SDS011;36118;56.468;84.952;2023-02-28T02:48:06;5.22;;;2.22;;
50231;SDS011;36118;56.468;84.952;2023-02-28T02:53:12;7.35;;;3.28;;
50231;SDS011;36118;56.468;84.952;2023-02-28T02:58:17;5.65;;;2.38;;
50231;SDS011;36118;56.468;84.952;2023-02-28T03:03:21;5.53;;;2.55;;
50231;SDS011;36118;56.468;84.952;2023-02-28T03:08:34;4.38;;;2.15;;
50231;SDS011;36118;56.468;84.952;2023-02-28T03:14:00;7.00;;;2.20;;
50231;SDS011;36118;56.468;84.952;2023-02-28T03:19:37;4.93;;;1.85;;
50231;SDS011;36118;56.468;84.952;2023-02-28T03:24:50;5.80;;;2.42;;
50231;SDS011;36118;56.468;84.952;2023-02-28T03:35:21;3.42;;;1.70;;
50231;SDS011;36118;56.468;84.952;2023-02-28T03:40:28;4.30;;;1.80;;
50231;SDS011;36118;56.468;84.952;2023-02-28T03:45:33;4.53;;;2.05;;
50231;SDS011;36118;56.468;84.952;2023-02-28T03:50:39;7.53;;;2.50;;
50231;SDS011;36118;56.468;84.952;2023-02-28T04:00:53;3.42;;;1.45;;
50231;SDS011;36118;56.468;84.952;2023-02-28T04:05:59;4.78;;;1.77;;
50231;SDS011;36118;56.468;84.952;2023-02-28T04:11:06;4.00;;;1.73;;
50231;SDS011;36118;56.468;84.952;2023-02-28T04:16:15;4.10;;;1.70;;
50231;SDS011;36118;56.468;84.952;2023-02-28T04:21:35;4.20;;;2.10;;
50231;SDS011;36118;56.468;84.952;2023-02-28T04:26:42;3.55;;;1.92;;
50231;SDS011;36118;56.468;84.952;2023-02-28T04:31:46;3.83;;;1.60;;
50231;SDS011;36118;56.468;84.952;2023-02-28T04:36:49;4.68;;;1.80;;
50231;SDS011;36118;56.468;84.952;2023-02-28T04:42:11;5.78;;;1.55;;
50231;SDS011;36118;56.468;84.952;2023-02-28T04:47:17;3.45;;;1.55;;
50231;SDS011;36118;56.468;84.952;2023-02-28T04:52:23;3.55;;;1.88;;
50231;SDS011;36118;56.468;84.952;2023-02-28T04:57:25;3.15;;;1.65;;
50231;SDS011;36118;56.468;84.952;2023-02-28T05:02:28;4.50;;;2.10;;
50231;SDS011;36118;56.468;84.952;2023-02-28T05:07:31;4.20;;;2.38;;
50231;SDS011;36118;56.468;84.952;2023-02-28T05:12:34;7.43;;;2.22;;
50231;SDS011;36118;56.468;84.952;2023-02-28T05:17:36;4.13;;;1.90;;
50231;SDS011;36118;56.468;84.952;2023-02-28T05:22:39;4.63;;;2.38;;
50231;SDS011;36118;56.468;84.952;2023-02-28T05:27:43;4.60;;;2.00;;
50231;SDS011;36118;56.468;84.952;2023-02-28T05:32:50;5.82;;;1.67;;
50231;SDS011;36118;56.468;84.952;2023-02-28T05:37:53;4.27;;;2.03;;
50231;SDS011;36118;56.468;84.952;2023-02-28T05:42:56;4.50;;;1.98;;
50231;SDS011;36118;56.468;84.952;2023-02-28T05:47:59;9.90;;;4.95;;
50231;SDS011;36118;56.468;84.952;2023-02-28T05:53:04;3.50;;;1.35;;
50231;SDS011;36118;56.468;84.952;2023-02-28T05:58:07;6.65;;;1.95;;
50231;SDS011;36118;56.468;84.952;2023-02-28T06:03:09;5.88;;;2.25;;
50231;SDS011;36118;56.468;84.952;2023-02-28T06:08:12;4.50;;;2.05;;
50231;SDS011;36118;56.468;84.952;2023-02-28T06:13:15;5.80;;;1.95;;
50231;SDS011;36118;56.468;84.952;2023-02-28T06:18:18;6.60;;;2.55;;
50231;SDS011;36118;56.468;84.952;2023-02-28T06:23:21;3.83;;;2.10;;
50231;SDS011;36118;56.468;84.952;2023-02-28T06:28:25;4.47;;;2.00;;
50231;SDS011;36118;56.468;84.952;2023-02-28T06:33:28;5.80;;;2.53;;
50231;SDS011;36118;56.468;84.952;2023-02-28T06:38:35;4.68;;;2.03;;
50231;SDS011;36118;56.468;84.952;2023-02-28T06:43:41;5.18;;;2.58;;
50231;SDS011;36118;56.468;84.952;2023-02-28T06:48:44;5.70;;;2.40;;
50231;SDS011;36118;56.468;84.952;2023-02-28T06:53:47;9.25;;;2.17;;
50231;SDS011;36118;56.468;84.952;2023-02-28T06:58:50;5.18;;;2.40;;
50231;SDS011;36118;56.468;84.952;2023-02-28T07:03:54;5.40;;;2.60;;
50231;SDS011;36118;56.468;84.952;2023-02-28T07:08:57;4.75;;;2.35;;
50231;SDS011;36118;56.468;84.952;2023-02-28T07:14:00;5.07;;;2.30;;
50231;SDS011;36118;56.468;84.952;2023-02-28T07:19:03;5.25;;;2.42;;
50231;SDS011;36118;56.468;84.952;2023-02-28T07:24:06;6.93;;;2.35;;
50231;SDS011;36118;56.468;84.952;2023-02-28T07:29:09;7.95;;;2.63;;
50231;SDS011;36118;56.468;84.952;2023-02-28T07:34:12;6.65;;;2.28;;
50231;SDS011;36118;56.468;84.952;2023-02-28T07:39:16;8.75;;;2.20;;
50231;SDS011;36118;56.468;84.952;2023-02-28T07:44:19;4.60;;;2.10;;
50231;SDS011;36118;56.468;84.952;2023-02-28T07:49:22;3.67;;;1.88;;
50231;SDS011;36118;56.468;84.952;2023-02-28T07:54:25;5.50;;;2.22;;
50231;SDS011;36118;56.468;84.952;2023-02-28T07:59:28;5.95;;;2.10;;
50231;SDS011;36118;56.468;84.952;2023-02-28T08:04:33;3.67;;;1.90;;
50231;SDS011;36118;56.468;84.952;2023-02-28T08:09:36;6.53;;;2.30;;
50231;SDS011;36118;56.468;84.952;2023-02-28T08:14:38;6.85;;;2.50;;
50231;SDS011;36118;56.468;84.952;2023-02-28T08:19:41;8.02;;;2.90;;
50231;SDS011;36118;56.468;84.952;2023-02-28T08:24:44;8.68;;;2.38;;
50231;SDS011;36118;56.468;84.952;2023-02-28T08:29:47;6.07;;;2.00;;
50231;SDS011;36118;56.468;84.952;2023-02-28T08:34:50;7.40;;;2.00;;
50231;SDS011;36118;56.468;84.952;2023-02-28T08:39:53;5.95;;;1.98;;
50231;SDS011;36118;56.468;84.952;2023-02-28T08:44:57;8.68;;;2.10;;
50231;SDS011;36118;56.468;84.952;2023-02-28T08:50:00;5.55;;;2.15;;
50231;SDS011;36118;56.468;84.952;2023-02-28T08:55:03;6.47;;;2.22;;
50231;SDS011;36118;56.468;84.952;2023-02-28T09:00:06;6.57;;;2.20;;
50231;SDS011;36118;56.468;84.952;2023-02-28T09:05:10;5.28;;;1.90;;
50231;SDS011;36118;56.468;84.952;2023-02-28T09:10:12;7.68;;;1.88;;
50231;SDS011;36118;56.468;84.952;2023-02-28T09:15:15;8.85;;;1.98;;
50231;SDS011;36118;56.468;84.952;2023-02-28T09:20:18;5.80;;;2.00;;
50231;SDS011;36118;56.468;84.952;2023-02-28T09:25:21;5.13;;;2.20;;
50231;SDS011;36118;56.468;84.952;2023-02-28T09:30:24;5.60;;;1.65;;
50231;SDS011;36118;56.468;84.952;2023-02-28T09:35:27;5.55;;;2.15;;
50231;SDS011;36118;56.468;84.952;2023-02-28T09:40:30;9.27;;;2.28;;
50231;SDS011;36118;56.468;84.952;2023-02-28T09:45:35;7.20;;;2.08;;
50231;SDS011;36118;56.468;84.952;2023-02-28T09:50:40;5.60;;;1.75;;
50231;SDS011;36118;56.468;84.952;2023-02-28T09:55:54;5.07;;;2.00;;
50231;SDS011;36118;56.468;84.952;2023-02-28T10:01:02;4.97;;;2.42;;
50231;SDS011;36118;56.468;84.952;2023-02-28T10:11:14;7.88;;;2.30;;
50231;SDS011;36118;56.468;84.952;2023-02-28T10:16:34;5.22;;;1.77;;
50231;SDS011;36118;56.468;84.952;2023-02-28T10:21:59;4.43;;;1.98;;
50231;SDS011;36118;56.468;84.952;2023-02-28T10:27:26;7.35;;;2.42;;
50231;SDS011;36118;56.468;84.952;2023-02-28T10:32:32;6.07;;;2.40;;
50231;SDS011;36118;56.468;84.952;2023-02-28T10:37:43;5.45;;;2.20;;
50231;SDS011;36118;56.468;84.952;2023-02-28T10:48:01;6.45;;;2.47;;
50231;SDS011;36118;56.468;84.952;2023-02-28T10:58:22;5.70;;;2.08;;
50231;SDS011;36118;56.468;84.952;2023-02-28T11:03:30;5.37;;;2.40;;
50231;SDS011;36118;56.468;84.952;2023-02-28T11:08:34;9.73;;;3.83;;
50231;SDS011;36118;56.468;84.952;2023-02-28T11:13:47;5.07;;;2.55;;
50231;SDS011;36118;56.468;84.952;2023-02-28T11:18:53;5.63;;;2.45;;
50231;SDS011;36118;56.468;84.952;2023-02-28T11:24:01;7.05;;;2.90;;
50231;SDS011;36118;56.468;84.952;2023-02-28T11:29:09;4.88;;;2.60;;
50231;SDS011;36118;56.468;84.952;2023-02-28T11:34:33;6.75;;;2.20;;
50231;SDS011;36118;56.468;84.952;2023-02-28T11:39:36;5.70;;;2.30;;
50231;SDS011;36118;56.468;84.952;2023-02-28T11:55:52;4.90;;;2.58;;
50231;SDS011;36118;56.468;84.952;2023-02-28T12:01:20;5.97;;;2.90;;
50231;SDS011;36118;56.468;84.952;2023-02-28T12:17:01;7.75;;;2.40;;
50231;SDS011;36118;56.468;84.952;2023-02-28T12:27:23;6.95;;;2.83;;
50231;SDS011;36118;56.468;84.952;2023-02-28T12:32:41;4.50;;;2.55;;
50231;SDS011;36118;56.468;84.952;2023-02-28T12:37:50;5.82;;;1.85;;
50231;SDS011;36118;56.468;84.952;2023-02-28T12:43:07;4.07;;;2.08;;
50231;SDS011;36118;56.468;84.952;2023-02-28T12:53:23;7.80;;;2.47;;
50231;SDS011;36118;56.468;84.952;2023-02-28T12:58:36;5.88;;;2.25;;
50231;SDS011;36118;56.468;84.952;2023-02-28T13:03:47;6.45;;;2.35;;
50231;SDS011;36118;56.468;84.952;2023-02-28T13:14:02;9.60;;;3.00;;
50231;SDS011;36118;56.468;84.952;2023-02-28T13:19:10;7.15;;;2.50;;
50231;SDS011;36118;56.468;84.952;2023-02-28T13:24:35;6.38;;;2.17;;
50231;SDS011;36118;56.468;84.952;2023-02-28T13:29:40;4.22;;;2.60;;
50231;SDS011;36118;56.468;84.952;2023-02-28T13:39:53;4.53;;;2.00;;
50231;SDS011;36118;56.468;84.952;2023-02-28T13:55:31;6.75;;;2.47;;
50231;SDS011;36118;56.468;84.952;2023-02-28T14:06:18;5.05;;;2.28;;
50231;SDS011;36118;56.468;84.952;2023-02-28T14:16:46;7.73;;;2.77;;
50231;SDS011;36118;56.468;84.952;2023-02-28T14:27:24;4.47;;;2.60;;
50231;SDS011;36118;56.468;84.952;2023-02-28T14:38:24;6.65;;;2.42;;
50231;SDS011;36118;56.468;84.952;2023-02-28T14:43:30;7.47;;;2.78;;
50231;SDS011;36118;56.468;84.952;2023-02-28T14:48:32;6.43;;;2.60;;
50231;SDS011;36118;56.468;84.952;2023-02-28T14:53:37;5.88;;;2.08;;
50231;SDS011;36118;56.468;84.952;2023-02-28T14:58:40;9.98;;;2.63;;
50231;SDS011;36118;56.468;84.952;2023-02-28T15:04:00;5.38;;;2.40;;
50231;SDS011;36118;56.468;84.952;2023-02-28T15:09:14;5.95;;;2.65;;
50231;SDS011;36118;56.468;84.952;2023-02-28T15:14:19;6.78;;;3.42;;
50231;SDS011;36118;56.468;84.952;2023-02-28T15:19:26;8.70;;;3.67;;
50231;SDS011;36118;56.468;84.952;2023-02-28T15:29:47;9.27;;;4.38;;
50231;SDS011;36118;56.468;84.952;2023-02-28T15:34:53;8.40;;;4.28;;
50231;SDS011;36118;56.468;84.952;2023-02-28T15:39:57;6.72;;;4.65;;
50231;SDS011;36118;56.468;84.952;2023-02-28T15:45:26;9.52;;;4.53;;
50231;SDS011;36118;56.468;84.952;2023-02-28T15:50:30;9.02;;;4.50;;
50231;SDS011;36118;56.468;84.952;2023-02-28T15:55:34;9.33;;;5.50;;
50231;SDS011;36118;56.468;84.952;2023-02-28T16:00:39;8.32;;;4.07;;
50231;SDS011;36118;56.468;84.952;2023-02-28T16:05:46;11.48;;;6.60;;
50231;SDS011;36118;56.468;84.952;2023-02-28T16:10:48;11.65;;;7.80;;
50231;SDS011;36118;56.468;84.952;2023-02-28T16:15:54;13.15;;;6.20;;
50231;SDS011;36118;56.468;84.952;2023-02-28T16:21:00;12.07;;;5.97;;
50231;SDS011;36118;56.468;84.952;2023-02-28T16:26:18;9.65;;;5.18;;
50231;SDS011;36118;56.468;84.952;2023-02-28T16:31:27;10.05;;;5.35;;
50231;SDS011;36118;56.468;84.952;2023-02-28T16:36:33;13.32;;;5.95;;
50231;SDS011;36118;56.468;84.952;2023-02-28T16:41:40;10.95;;;6.32;;
50231;SDS011;36118;56.468;84.952;2023-02-28T16:46:44;11.93;;;6.07;;
50231;SDS011;36118;56.468;84.952;2023-02-28T16:51:47;10.43;;;6.63;;
50231;SDS011;36118;56.468;84.952;2023-02-28T16:56:50;11.13;;;7.38;;
50231;SDS011;36118;56.468;84.952;2023-02-28T17:01:53;15.63;;;6.20;;
50231;SDS011;36118;56.468;84.952;2023-02-28T17:06:58;10.52;;;6.30;;
50231;SDS011;36118;56.468;84.952;2023-02-28T17:12:01;11.27;;;6.05;;
50231;SDS011;36118;56.468;84.952;2023-02-28T17:17:04;9.23;;;5.05;;
50231;SDS011;36118;56.468;84.952;2023-02-28T17:22:07;11.87;;;5.00;;
50231;SDS011;36118;56.468;84.952;2023-02-28T17:27:11;11.35;;;5.90;;
50231;SDS011;36118;56.468;84.952;2023-02-28T17:32:15;9.68;;;5.22;;
50231;SDS011;36118;56.468;84.952;2023-02-28T17:37:19;10.15;;;5.40;;
50231;SDS011;36118;56.468;84.952;2023-02-28T17:42:22;11.18;;;6.72;;
50231;SDS011;36118;56.468;84.952;2023-02-28T17:47:24;9.40;;;5.88;;
50231;SDS011;36118;56.468;84.952;2023-02-28T17:52:27;12.40;;;5.97;;
50231;SDS011;36118;56.468;84.952;2023-02-28T17:57:31;8.68;;;4.07;;
50231;SDS011;36118;56.468;84.952;2023-02-28T18:02:34;10.32;;;5.90;;
50231;SDS011;36118;56.468;84.952;2023-02-28T18:07:37;10.02;;;4.88;;
50231;SDS011;36118;56.468;84.952;2023-02-28T18:12:40;12.70;;;6.65;;
50231;SDS011;36118;56.468;84.952;2023-02-28T18:17:43;9.07;;;5.55;;
50231;SDS011;36118;56.468;84.952;2023-02-28T18:22:45;12.43;;;7.13;;
50231;SDS011;36118;56.468;84.952;2023-02-28T18:27:48;11.20;;;6.43;;
50231;SDS011;36118;56.468;84.952;2023-02-28T18:33:00;13.48;;;5.90;;
50231;SDS011;36118;56.468;84.952;2023-02-28T18:38:13;13.50;;;7.03;;
50231;SDS011;36118;56.468;84.952;2023-02-28T18:43:17;13.63;;;6.13;;
50231;SDS011;36118;56.468;84.952;2023-02-28T18:48:20;13.60;;;5.88;;
50231;SDS011;36118;56.468;84.952;2023-02-28T18:53:24;11.52;;;5.97;;
50231;SDS011;36118;56.468;84.952;2023-02-28T18:58:27;11.90;;;7.35;;
50231;SDS011;36118;56.468;84.952;2023-02-28T19:03:30;11.85;;;6.78;;
50231;SDS011;36118;56.468;84.952;2023-02-28T19:08:33;12.27;;;5.80;;
50231;SDS011;36118;56.468;84.952;2023-02-28T19:13:35;11.27;;;6.65;;
50231;SDS011;36118;56.468;84.952;2023-02-28T19:18:39;12.52;;;7.75;;
50231;SDS011;36118;56.468;84.952;2023-02-28T19:23:42;13.15;;;7.57;;
50231;SDS011;36118;56.468;84.952;2023-02-28T19:28:45;10.23;;;5.03;;
50231;SDS011;36118;56.468;84.952;2023-02-28T19:33:48;12.05;;;7.07;;
50231;SDS011;36118;56.468;84.952;2023-02-28T19:38:53;13.07;;;6.95;;
50231;SDS011;36118;56.468;84.952;2023-02-28T19:43:56;12.40;;;5.60;;
50231;SDS011;36118;56.468;84.952;2023-02-28T19:49:00;13.55;;;8.05;;
50231;SDS011;36118;56.468;84.952;2023-02-28T19:54:03;13.32;;;7.70;;
50231;SDS011;36118;56.468;84.952;2023-02-28T19:59:06;12.80;;;5.90;;
50231;SDS011;36118;56.468;84.952;2023-02-28T20:04:22;10.95;;;7.07;;
50231;SDS011;36118;56.468;84.952;2023-02-28T20:09:28;10.73;;;6.47;;
50231;SDS011;36118;56.468;84.952;2023-02-28T20:14:32;11.27;;;6.20;;
50231;SDS011;36118;56.468;84.952;2023-02-28T20:19:35;10.80;;;7.70;;
50231;SDS011;36118;56.468;84.952;2023-02-28T20:24:38;9.68;;;6.18;;
50231;SDS011;36118;56.468;84.952;2023-02-28T20:29:41;13.63;;;7.25;;
50231;SDS011;36118;56.468;84.952;2023-02-28T20:34:43;12.55;;;6.90;;
50231;SDS011;36118;56.468;84.952;2023-02-28T20:39:46;10.77;;;6.30;;
50231;SDS011;36118;56.468;84.952;2023-02-28T20:44:50;10.00;;;5.03;;
50231;SDS011;36118;56.468;84.952;2023-02-28T20:49:53;11.13;;;6.45;;
50231;SDS011;36118;56.468;84.952;2023-02-28T20:54:56;11.43;;;5.70;;
50231;SDS011;36118;56.468;84.952;2023-02-28T20:59:59;11.73;;;6.95;;
50231;SDS011;36118;56.468;84.952;2023-02-28T21:05:02;11.07;;;6.53;;
50231;SDS011;36118;56.468;84.952;2023-02-28T21:10:05;11.45;;;5.85;;
50231;SDS011;36118;56.468;84.952;2023-02-28T21:15:10;11.35;;;5.93;;
50231;SDS011;36118;56.468;84.952;2023-02-28T21:20:13;9.45;;;5.15;;
50231;SDS011;36118;56.468;84.952;2023-02-28T21:25:22;11.10;;;6.38;;
50231;SDS011;36118;56.468;84.952;2023-02-28T21:30:25;10.73;;;5.53;;
50231;SDS011;36118;56.468;84.952;2023-02-28T21:35:28;8.02;;;5.47;;
50231;SDS011;36118;56.468;84.952;2023-02-28T21:40:32;9.75;;;5.13;;
50231;SDS011;36118;56.468;84.952;2023-02-28T21:45:34;10.55;;;6.32;;
50231;SDS011;36118;56.468;84.952;2023-02-28T21:50:37;8.82;;;5.00;;
50231;SDS011;36118;56.468;84.952;2023-02-28T21:55:40;11.77;;;7.88;;
50231;SDS011;36118;56.468;84.952;2023-02-28T22:00:43;11.15;;;7.03;;
50231;SDS011;36118;56.468;84.952;2023-02-28T22:05:47;10.30;;;7.60;;
50231;SDS011;36118;56.468;84.952;2023-02-28T22:10:50;8.88;;;7.50;;
50231;SDS011;36118;56.468;84.952;2023-02-28T22:15:52;9.70;;;6.13;;
50231;SDS011;36118;56.468;84.952;2023-02-28T22:20:55;10.48;;;8.10;;
50231;SDS011;36118;56.468;84.952;2023-02-28T22:26:02;10.48;;;7.18;;
50231;SDS011;36118;56.468;84.952;2023-02-28T22:31:15;12.30;;;7.80;;
50231;SDS011;36118;56.468;84.952;2023-02-28T22:36:21;13.73;;;8.68;;
50231;SDS011;36118;56.468;84.952;2023-02-28T22:41:24;11.13;;;9.02;;
50231;SDS011;36118;56.468;84.952;2023-02-28T22:46:28;12.93;;;8.32;;
50231;SDS011;36118;56.468;84.952;2023-02-28T22:56:35;11.68;;;8.07;;
50231;SDS011;36118;56.468;84.952;2023-02-28T23:01:38;10.98;;;6.85;;
50231;SDS011;36118;56.468;84.952;2023-02-28T23:06:42;12.88;;;6.05;;
50231;SDS011;36118;56.468;84.952;2023-02-28T23:11:46;13.18;;;9.18;;
50231;SDS011;36118;56.468;84.952;2023-02-28T23:16:51;11.55;;;8.40;;
50231;SDS011;36118;56.468;84.952;2023-02-28T23:21:56;12.65;;;7.85;;
50231;SDS011;36118;56.468;84.952;2023-02-28T23:27:01;12.37;;;8.03;;
50231;SDS011;36118;56.468;84.952;2023-02-28T23:32:06;15.68;;;9.20;;
50231;SDS011;36118;56.468;84.952;2023-02-28T23:37:33;14.30;;;10.20;;
50231;SDS011;36118;56.468;84.952;2023-02-28T23:42:50;16.02;;;11.27;;
50231;SDS011;36118;56.468;84.952;2023-02-28T23:47:54;14.55;;;9.30;;
50231;SDS011;36118;56.468;84.952;2023-02-28T23:52:57;16.98;;;10.07;;
